createdAt,value
2023-10-26T04:17:16.465Z,4.22
2023-10-26T04:20:30.843Z,3.80
2023-10-26T04:23:45.050Z,3.90
2023-10-26T04:26:59.349Z,3.47
2023-10-26T04:30:14.055Z,3.78
2023-10-26T04:33:29.795Z,3.30
2023-10-26T04:36:44.038Z,3.25
2023-10-26T04:39:58.979Z,3.70
2023-10-26T04:43:14.151Z,3.12
2023-10-26T04:46:28.517Z,3.33
2023-10-26T04:49:44.210Z,3.85
2023-10-26T04:52:58.346Z,3.03
2023-10-26T04:56:13.003Z,3.22
2023-10-26T04:59:27.254Z,3.05
2023-10-26T05:02:42.968Z,3.55
2023-10-26T05:05:58.839Z,3.00
2023-10-26T05:09:13.165Z,3.53
2023-10-26T05:12:27.400Z,3.60
2023-10-26T05:15:41.565Z,3.22
2023-10-26T05:18:55.836Z,3.35
2023-10-26T05:22:11.520Z,3.22
2023-10-26T05:25:25.687Z,3.47
2023-10-26T05:28:40.117Z,3.15
2023-10-26T05:31:54.680Z,3.20
2023-10-26T05:35:09.270Z,3.33
2023-10-26T05:38:31.885Z,3.53
2023-10-26T05:41:46.231Z,3.58
2023-10-26T05:45:06.607Z,3.08
2023-10-26T05:49:05.551Z,3.22
2023-10-26T05:52:20.518Z,4.03
2023-10-26T05:55:36.666Z,3.35
2023-10-26T05:58:51.689Z,3.53
2023-10-26T06:02:13.528Z,3.60
2023-10-26T06:05:34.411Z,3.28
2023-10-26T06:08:51.283Z,3.12
2023-10-26T06:12:09.471Z,3.00
2023-10-26T06:15:32.469Z,3.15
2023-10-26T06:18:47.151Z,4.25
2023-10-26T06:22:02.081Z,3.37
2023-10-26T06:25:18.936Z,2.95
2023-10-26T06:28:39.085Z,2.97
2023-10-26T06:31:55.386Z,3.00
2023-10-26T06:35:40.423Z,2.80
2023-10-26T06:39:14.480Z,2.90
2023-10-26T06:42:30.751Z,3.37
2023-10-26T06:45:57.261Z,2.78
2023-10-26T06:49:29.109Z,2.42
2023-10-26T06:52:58.341Z,2.80
2023-10-26T06:56:13.959Z,2.80
2023-10-26T06:59:28.690Z,2.80
2023-10-26T07:02:47.183Z,3.12
2023-10-26T07:06:05.229Z,2.70
2023-10-26T07:09:21.063Z,3.20
2023-10-26T07:12:56.322Z,4.03
2023-10-26T07:16:14.973Z,3.55
2023-10-26T07:19:36.425Z,4.07
2023-10-26T07:22:53.676Z,4.00
2023-10-26T07:26:11.538Z,3.83
2023-10-26T07:29:28.981Z,4.10
2023-10-26T07:33:03.342Z,3.87
2023-10-26T07:36:32.049Z,4.35
2023-10-26T07:39:49.015Z,3.95
2023-10-26T07:43:08.411Z,3.78
2023-10-26T07:46:24.789Z,4.20
2023-10-26T07:49:40.431Z,4.22
2023-10-26T07:53:00.496Z,5.07
2023-10-26T07:56:15.587Z,4.30
2023-10-26T07:59:36.072Z,4.40
2023-10-26T08:02:53.844Z,4.97
2023-10-26T08:06:13.809Z,5.25
2023-10-26T08:09:48.293Z,5.57
2023-10-26T08:13:02.907Z,6.70
2023-10-26T08:16:44.034Z,5.37
2023-10-26T08:19:58.457Z,4.45
2023-10-26T08:23:13.772Z,5.97
2023-10-26T08:26:33.114Z,5.05
2023-10-26T08:29:51.332Z,6.03
2023-10-26T08:33:07.789Z,5.00
2023-10-26T08:36:22.415Z,5.97
2023-10-26T08:39:46.817Z,5.32
2023-10-26T08:43:26.155Z,5.10
2023-10-26T08:47:06.897Z,5.45
2023-10-26T08:50:43.298Z,6.18
2023-10-26T08:54:08.721Z,6.03
2023-10-26T08:57:36.579Z,5.97
2023-10-26T09:06:05.754Z,5.37
2023-10-26T09:10:22.726Z,6.82
2023-10-26T09:13:39.463Z,6.93
2023-10-26T09:16:56.410Z,8.90
2023-10-26T09:20:22.882Z,8.38
2023-10-26T09:23:38.621Z,7.60
2023-10-26T09:26:58.748Z,7.12
2023-10-26T09:30:28.012Z,6.70
2023-10-26T09:33:48.384Z,4.95
2023-10-26T09:37:04.159Z,7.10
2023-10-26T09:40:18.527Z,6.87
2023-10-26T09:43:35.272Z,5.80
2023-10-26T09:46:51.820Z,6.20
2023-10-26T09:50:11.784Z,5.25
2023-10-26T09:53:29.364Z,5.22
2023-10-26T09:56:49.284Z,5.35
2023-10-26T10:00:10.918Z,5.68
2023-10-26T10:03:47.558Z,5.10
2023-10-26T10:07:08.230Z,4.85
2023-10-26T10:10:39.399Z,4.95
2023-10-26T10:13:58.886Z,8.50
2023-10-26T10:17:14.550Z,6.78
2023-10-26T10:20:38.557Z,5.32
2023-10-26T10:23:59.426Z,5.30
2023-10-26T10:27:14.398Z,6.97
2023-10-26T10:30:52.785Z,5.10
2023-10-26T10:34:15.852Z,5.85
2023-10-26T10:37:30.660Z,6.00
2023-10-26T10:41:42.196Z,4.10
2023-10-26T10:49:28.089Z,7.45
2023-10-26T10:52:43.641Z,5.93
2023-10-26T10:55:59.538Z,5.32
2023-10-26T10:59:23.224Z,5.65
2023-10-26T11:02:37.517Z,5.80
2023-10-26T11:05:51.755Z,6.43
2023-10-26T11:09:06.603Z,4.32
2023-10-26T11:12:20.788Z,4.82
2023-10-26T11:15:36.716Z,3.92
2023-10-26T11:18:50.918Z,3.97
2023-10-26T11:22:05.558Z,3.67
2023-10-26T11:25:30.119Z,6.50
2023-10-26T11:28:44.606Z,4.30
2023-10-26T11:32:00.720Z,4.50
2023-10-26T11:35:16.420Z,4.15
2023-10-26T11:38:32.433Z,4.32
2023-10-26T11:41:54.032Z,3.95
2023-10-26T11:45:13.682Z,6.37
2023-10-26T11:48:34.642Z,7.70
2023-10-26T11:51:54.317Z,4.10
2023-10-26T11:55:15.967Z,5.03
2023-10-26T11:58:30.098Z,5.43
2023-10-26T12:01:57.021Z,5.25
2023-10-26T12:13:03.571Z,5.05
2023-10-26T12:16:17.824Z,4.93
2023-10-26T12:19:32.941Z,4.55
2023-10-26T12:22:49.982Z,4.03
2023-10-26T12:26:05.751Z,4.37
2023-10-26T12:29:26.222Z,4.30
2023-10-26T12:32:40.475Z,3.58
2023-10-26T12:35:54.754Z,3.22
2023-10-26T12:39:09.052Z,3.40
2023-10-26T12:42:26.004Z,3.67
2023-10-26T12:45:40.707Z,4.50
2023-10-26T12:48:55.004Z,4.95
2023-10-26T12:52:09.391Z,5.60
2023-10-26T12:55:25.169Z,4.00
2023-10-26T12:58:40.918Z,5.15
2023-10-26T13:01:55.065Z,4.25
2023-10-26T13:05:17.435Z,5.00
2023-10-26T13:08:31.698Z,3.92
2023-10-26T13:11:45.976Z,3.70
2023-10-26T13:15:04.569Z,3.95
2023-10-26T13:18:22.253Z,4.80
2023-10-26T13:21:50.760Z,4.10
2023-10-26T13:41:43.508Z,4.18
2023-10-26T13:49:49.593Z,5.35
2023-10-26T13:53:04.005Z,4.62
2023-10-26T13:56:18.259Z,4.22
2023-10-26T13:59:49.557Z,4.03
2023-10-26T14:07:14.870Z,5.97
2023-10-26T14:10:30.810Z,18.17
2023-10-26T14:13:45.241Z,19.77
2023-10-26T14:17:02.197Z,4.53
2023-10-26T14:52:57.528Z,50.95
2023-10-26T14:56:11.797Z,72.97
2023-10-26T14:59:49.190Z,19.35
